sensor_id;sensor_type;location;lat;lon;timestamp;temperature;humidity
59703;DHT22;45570;48.782;8.332;2022-07-23T00:00:03;23.10;99.90
59703;DHT22;45570;48.782;8.332;2022-07-23T00:02:32;23.00;99.90
59703;DHT22;45570;48.782;8.332;2022-07-23T00:05:01;22.90;99.90
59703;DHT22;45570;48.782;8.332;2022-07-23T00:07:31;23.00;99.90
59703;DHT22;45570;48.782;8.332;2022-07-23T00:10:00;22.90;99.90
59703;DHT22;45570;48.782;8.332;2022-07-23T00:12:29;22.80;99.90
59703;DHT22;45570;48.782;8.332;2022-07-23T00:14:57;22.80;99.90
59703;DHT22;45570;48.782;8.332;2022-07-23T00:17:26;22.60;99.90
59703;DHT22;45570;48.782;8.332;2022-07-23T00:19:55;22.60;99.90
59703;DHT22;45570;48.782;8.332;2022-07-23T00:22:24;22.50;99.90
59703;DHT22;45570;48.782;8.332;2022-07-23T00:24:54;22.50;99.90
59703;DHT22;45570;48.782;8.332;2022-07-23T00:27:43;22.40;99.90
59703;DHT22;45570;48.782;8.332;2022-07-23T00:30:13;22.30;99.90
59703;DHT22;45570;48.782;8.332;2022-07-23T00:32:46;22.20;99.90
59703;DHT22;45570;48.782;8.332;2022-07-23T00:35:22;22.20;99.90
59703;DHT22;45570;48.782;8.332;2022-07-23T00:37:51;22.10;99.90
59703;DHT22;45570;48.782;8.332;2022-07-23T00:40:22;22.10;99.90
59703;DHT22;45570;48.782;8.332;2022-07-23T00:42:51;22.00;99.90
59703;DHT22;45570;48.782;8.332;2022-07-23T00:45:20;21.90;99.90
59703;DHT22;45570;48.782;8.332;2022-07-23T00:47:48;22.00;99.90
59703;DHT22;45570;48.782;8.332;2022-07-23T00:50:18;21.90;99.90
59703;DHT22;45570;48.782;8.332;2022-07-23T00:52:46;21.90;99.90
59703;DHT22;45570;48.782;8.332;2022-07-23T00:55:16;21.90;99.90
59703;DHT22;45570;48.782;8.332;2022-07-23T00:57:47;21.70;99.90
59703;DHT22;45570;48.782;8.332;2022-07-23T01:00:16;21.70;99.90
59703;DHT22;45570;48.782;8.332;2022-07-23T01:02:45;21.60;99.90
59703;DHT22;45570;48.782;8.332;2022-07-23T01:05:15;21.60;99.90
59703;DHT22;45570;48.782;8.332;2022-07-23T01:07:45;21.60;99.90
59703;DHT22;45570;48.782;8.332;2022-07-23T01:10:21;21.70;99.90
59703;DHT22;45570;48.782;8.332;2022-07-23T01:13:05;21.70;99.90
59703;DHT22;45570;48.782;8.332;2022-07-23T01:15:37;21.60;99.90
59703;DHT22;45570;48.782;8.332;2022-07-23T01:18:07;21.60;99.90
59703;DHT22;45570;48.782;8.332;2022-07-23T01:20:38;21.60;99.90
59703;DHT22;45570;48.782;8.332;2022-07-23T01:23:09;21.50;99.90
59703;DHT22;45570;48.782;8.332;2022-07-23T01:25:48;21.50;99.90
59703;DHT22;45570;48.782;8.332;2022-07-23T01:28:18;21.50;99.90
59703;DHT22;45570;48.782;8.332;2022-07-23T01:30:49;21.30;99.90
59703;DHT22;45570;48.782;8.332;2022-07-23T01:33:18;21.30;99.90
59703;DHT22;45570;48.782;8.332;2022-07-23T01:35:46;21.30;99.90
59703;DHT22;45570;48.782;8.332;2022-07-23T01:38:22;21.10;99.90
59703;DHT22;45570;48.782;8.332;2022-07-23T01:40:51;21.10;99.90
59703;DHT22;45570;48.782;8.332;2022-07-23T01:43:26;21.00;99.90
59703;DHT22;45570;48.782;8.332;2022-07-23T01:45:55;20.90;99.90
59703;DHT22;45570;48.782;8.332;2022-07-23T01:48:28;20.80;99.90
59703;DHT22;45570;48.782;8.332;2022-07-23T01:51:20;20.80;99.90
59703;DHT22;45570;48.782;8.332;2022-07-23T01:53:59;20.70;99.90
59703;DHT22;45570;48.782;8.332;2022-07-23T01:56:28;20.60;99.90
59703;DHT22;45570;48.782;8.332;2022-07-23T01:58:56;20.50;99.90
59703;DHT22;45570;48.782;8.332;2022-07-23T02:01:26;20.50;99.90
59703;DHT22;45570;48.782;8.332;2022-07-23T02:03:55;20.40;99.90
59703;DHT22;45570;48.782;8.332;2022-07-23T02:06:24;20.40;99.90
59703;DHT22;45570;48.782;8.332;2022-07-23T02:08:53;20.30;99.90
59703;DHT22;45570;48.782;8.332;2022-07-23T02:11:23;20.20;99.90
59703;DHT22;45570;48.782;8.332;2022-07-23T02:13:53;20.20;99.90
59703;DHT22;45570;48.782;8.332;2022-07-23T02:16:22;20.10;99.90
59703;DHT22;45570;48.782;8.332;2022-07-23T02:18:51;20.00;99.90
59703;DHT22;45570;48.782;8.332;2022-07-23T02:21:19;20.00;99.90
59703;DHT22;45570;48.782;8.332;2022-07-23T02:23:48;19.90;99.90
59703;DHT22;45570;48.782;8.332;2022-07-23T02:26:17;20.00;99.90
59703;DHT22;45570;48.782;8.332;2022-07-23T02:28:51;19.90;99.90
59703;DHT22;45570;48.782;8.332;2022-07-23T02:31:21;19.80;99.90
59703;DHT22;45570;48.782;8.332;2022-07-23T02:33:50;19.90;99.90
59703;DHT22;45570;48.782;8.332;2022-07-23T02:36:19;20.00;99.90
59703;DHT22;45570;48.782;8.332;2022-07-23T05:16:11;20.90;99.90
59703;DHT22;45570;48.782;8.332;2022-07-23T06:29:48;20.40;99.90
59703;DHT22;45570;48.782;8.332;2022-07-23T06:32:17;20.20;99.90
59703;DHT22;45570;48.782;8.332;2022-07-23T06:34:46;20.20;99.90
59703;DHT22;45570;48.782;8.332;2022-07-23T06:37:15;20.30;99.90
59703;DHT22;45570;48.782;8.332;2022-07-23T06:39:46;20.40;99.90
59703;DHT22;45570;48.782;8.332;2022-07-23T06:42:15;20.80;99.90
59703;DHT22;45570;48.782;8.332;2022-07-23T06:44:45;20.70;99.90
59703;DHT22;45570;48.782;8.332;2022-07-23T06:47:17;20.70;99.90
59703;DHT22;45570;48.782;8.332;2022-07-23T06:49:47;20.70;99.90
59703;DHT22;45570;48.782;8.332;2022-07-23T06:52:17;20.70;99.90
59703;DHT22;45570;48.782;8.332;2022-07-23T06:54:45;20.60;99.90
59703;DHT22;45570;48.782;8.332;2022-07-23T06:57:14;20.60;99.90
59703;DHT22;45570;48.782;8.332;2022-07-23T06:59:43;20.70;99.90
59703;DHT22;45570;48.782;8.332;2022-07-23T07:02:12;20.80;99.90
59703;DHT22;45570;48.782;8.332;2022-07-23T07:04:42;20.60;99.90
59703;DHT22;45570;48.782;8.332;2022-07-23T07:07:11;20.60;99.90
59703;DHT22;45570;48.782;8.332;2022-07-23T07:09:40;20.70;99.90
59703;DHT22;45570;48.782;8.332;2022-07-23T07:12:11;20.80;99.90
59703;DHT22;45570;48.782;8.332;2022-07-23T07:14:40;21.10;99.90
59703;DHT22;45570;48.782;8.332;2022-07-23T07:17:09;21.40;99.90
59703;DHT22;45570;48.782;8.332;2022-07-23T07:19:38;21.70;99.90
59703;DHT22;45570;48.782;8.332;2022-07-23T07:22:08;21.80;99.90
59703;DHT22;45570;48.782;8.332;2022-07-23T07:24:37;21.90;99.90
59703;DHT22;45570;48.782;8.332;2022-07-23T07:27:05;22.00;99.90
59703;DHT22;45570;48.782;8.332;2022-07-23T07:29:35;21.80;99.90
59703;DHT22;45570;48.782;8.332;2022-07-23T07:32:04;21.60;99.90
59703;DHT22;45570;48.782;8.332;2022-07-23T07:34:34;21.40;99.90
59703;DHT22;45570;48.782;8.332;2022-07-23T07:37:04;21.30;99.90
59703;DHT22;45570;48.782;8.332;2022-07-23T07:39:37;21.30;99.90
59703;DHT22;45570;48.782;8.332;2022-07-23T07:42:13;21.40;99.90
59703;DHT22;45570;48.782;8.332;2022-07-23T07:44:42;21.50;99.90
59703;DHT22;45570;48.782;8.332;2022-07-23T07:47:11;21.40;99.90
59703;DHT22;45570;48.782;8.332;2022-07-23T07:49:41;21.80;99.90
59703;DHT22;45570;48.782;8.332;2022-07-23T07:52:10;22.20;99.90
59703;DHT22;45570;48.782;8.332;2022-07-23T07:54:41;22.40;99.90
59703;DHT22;45570;48.782;8.332;2022-07-23T07:57:10;22.70;99.90
59703;DHT22;45570;48.782;8.332;2022-07-23T07:59:39;22.50;99.90
59703;DHT22;45570;48.782;8.332;2022-07-23T08:02:08;22.50;99.90
59703;DHT22;45570;48.782;8.332;2022-07-23T08:04:36;22.30;99.90
59703;DHT22;45570;48.782;8.332;2022-07-23T08:07:05;22.30;99.90
59703;DHT22;45570;48.782;8.332;2022-07-23T08:09:34;22.40;99.90
59703;DHT22;45570;48.782;8.332;2022-07-23T08:12:04;22.40;99.90
59703;DHT22;45570;48.782;8.332;2022-07-23T08:14:33;22.40;99.90
59703;DHT22;45570;48.782;8.332;2022-07-23T08:17:02;22.40;99.90
59703;DHT22;45570;48.782;8.332;2022-07-23T08:19:40;22.40;99.90
59703;DHT22;45570;48.782;8.332;2022-07-23T08:22:09;22.60;99.90
59703;DHT22;45570;48.782;8.332;2022-07-23T08:24:38;22.90;99.90
59703;DHT22;45570;48.782;8.332;2022-07-23T08:27:08;23.40;99.90
59703;DHT22;45570;48.782;8.332;2022-07-23T08:29:37;24.00;99.90
59703;DHT22;45570;48.782;8.332;2022-07-23T08:32:06;24.40;99.90
59703;DHT22;45570;48.782;8.332;2022-07-23T08:34:55;24.80;99.90
59703;DHT22;45570;48.782;8.332;2022-07-23T08:37:23;25.20;99.90
59703;DHT22;45570;48.782;8.332;2022-07-23T08:39:52;25.50;99.90
59703;DHT22;45570;48.782;8.332;2022-07-23T08:42:25;25.70;99.90
59703;DHT22;45570;48.782;8.332;2022-07-23T08:44:54;25.80;99.90
59703;DHT22;45570;48.782;8.332;2022-07-23T08:47:23;26.20;99.90
59703;DHT22;45570;48.782;8.332;2022-07-23T08:49:53;26.60;99.90
59703;DHT22;45570;48.782;8.332;2022-07-23T08:52:22;26.60;99.90
59703;DHT22;45570;48.782;8.332;2022-07-23T08:54:55;26.00;99.90
59703;DHT22;45570;48.782;8.332;2022-07-23T08:57:27;26.00;99.90
59703;DHT22;45570;48.782;8.332;2022-07-23T08:59:56;26.30;99.90
59703;DHT22;45570;48.782;8.332;2022-07-23T09:02:25;26.30;99.90
59703;DHT22;45570;48.782;8.332;2022-07-23T09:04:53;26.60;99.90
59703;DHT22;45570;48.782;8.332;2022-07-23T09:07:22;26.90;99.90
59703;DHT22;45570;48.782;8.332;2022-07-23T09:10:06;26.90;99.90
59703;DHT22;45570;48.782;8.332;2022-07-23T09:12:37;27.10;99.90
59703;DHT22;45570;48.782;8.332;2022-07-23T09:15:08;27.40;99.90
59703;DHT22;45570;48.782;8.332;2022-07-23T09:17:38;27.60;99.90
59703;DHT22;45570;48.782;8.332;2022-07-23T09:20:11;27.90;99.90
59703;DHT22;45570;48.782;8.332;2022-07-23T09:22:44;27.70;99.90
59703;DHT22;45570;48.782;8.332;2022-07-23T09:25:16;27.90;99.90
59703;DHT22;45570;48.782;8.332;2022-07-23T09:27:52;28.30;99.90
59703;DHT22;45570;48.782;8.332;2022-07-23T09:30:23;28.50;99.90
59703;DHT22;45570;48.782;8.332;2022-07-23T09:33:06;28.60;99.90
59703;DHT22;45570;48.782;8.332;2022-07-23T09:35:49;28.80;99.90
59703;DHT22;45570;48.782;8.332;2022-07-23T09:38:19;28.80;99.90
59703;DHT22;45570;48.782;8.332;2022-07-23T09:41:05;28.70;99.90
59703;DHT22;45570;48.782;8.332;2022-07-23T09:43:36;28.80;99.90
59703;DHT22;45570;48.782;8.332;2022-07-23T09:46:18;28.90;99.90
59703;DHT22;45570;48.782;8.332;2022-07-23T09:48:47;28.90;99.90
59703;DHT22;45570;48.782;8.332;2022-07-23T09:51:16;28.40;99.90
59703;DHT22;45570;48.782;8.332;2022-07-23T09:53:47;28.70;99.90
59703;DHT22;45570;48.782;8.332;2022-07-23T09:56:17;28.80;99.90
59703;DHT22;45570;48.782;8.332;2022-07-23T09:58:55;28.60;99.90
59703;DHT22;45570;48.782;8.332;2022-07-23T10:01:31;28.50;99.90
59703;DHT22;45570;48.782;8.332;2022-07-23T10:04:01;28.70;99.90
59703;DHT22;45570;48.782;8.332;2022-07-23T10:06:53;28.80;99.90
59703;DHT22;45570;48.782;8.332;2022-07-23T10:09:41;29.00;99.90
59703;DHT22;45570;48.782;8.332;2022-07-23T10:12:29;29.10;99.90
59703;DHT22;45570;48.782;8.332;2022-07-23T10:15:25;29.20;99.90
59703;DHT22;45570;48.782;8.332;2022-07-23T10:17:54;29.20;99.90
59703;DHT22;45570;48.782;8.332;2022-07-23T10:20:23;29.00;99.90
59703;DHT22;45570;48.782;8.332;2022-07-23T10:23:00;29.10;99.90
59703;DHT22;45570;48.782;8.332;2022-07-23T10:25:35;29.10;99.90
59703;DHT22;45570;48.782;8.332;2022-07-23T10:31:06;29.20;99.90
59703;DHT22;45570;48.782;8.332;2022-07-23T10:34:06;29.30;99.90
59703;DHT22;45570;48.782;8.332;2022-07-23T10:36:42;29.60;99.90
59703;DHT22;45570;48.782;8.332;2022-07-23T10:39:15;29.90;99.90
59703;DHT22;45570;48.782;8.332;2022-07-23T10:41:46;29.70;99.90
59703;DHT22;45570;48.782;8.332;2022-07-23T10:44:16;29.50;99.90
59703;DHT22;45570;48.782;8.332;2022-07-23T10:46:57;29.40;99.90
59703;DHT22;45570;48.782;8.332;2022-07-23T10:50:22;29.20;99.90
59703;DHT22;45570;48.782;8.332;2022-07-23T10:53:13;29.40;99.90
59703;DHT22;45570;48.782;8.332;2022-07-23T10:55:52;29.80;99.90
59703;DHT22;45570;48.782;8.332;2022-07-23T10:58:23;29.80;99.90
59703;DHT22;45570;48.782;8.332;2022-07-23T11:01:31;30.00;99.90
59703;DHT22;45570;48.782;8.332;2022-07-23T11:04:02;30.10;99.90
59703;DHT22;45570;48.782;8.332;2022-07-23T11:07:08;30.10;99.90
59703;DHT22;45570;48.782;8.332;2022-07-23T11:09:40;29.70;99.90
59703;DHT22;45570;48.782;8.332;2022-07-23T11:12:32;29.60;99.90
59703;DHT22;45570;48.782;8.332;2022-07-23T11:15:03;29.90;99.90
59703;DHT22;45570;48.782;8.332;2022-07-23T11:17:34;29.70;99.90
59703;DHT22;45570;48.782;8.332;2022-07-23T11:20:22;29.80;99.90
59703;DHT22;45570;48.782;8.332;2022-07-23T11:22:54;30.10;99.90
59703;DHT22;45570;48.782;8.332;2022-07-23T11:25:35;30.30;99.90
59703;DHT22;45570;48.782;8.332;2022-07-23T11:28:13;30.60;99.90
59703;DHT22;45570;48.782;8.332;2022-07-23T11:30:44;30.70;99.70
59703;DHT22;45570;48.782;8.332;2022-07-23T11:33:22;30.90;96.70
59703;DHT22;45570;48.782;8.332;2022-07-23T11:36:02;30.90;99.00
59703;DHT22;45570;48.782;8.332;2022-07-23T11:38:32;30.60;99.90
59703;DHT22;45570;48.782;8.332;2022-07-23T11:41:01;30.40;97.40
59703;DHT22;45570;48.782;8.332;2022-07-23T11:43:30;30.50;99.80
59703;DHT22;45570;48.782;8.332;2022-07-23T11:46:00;30.60;99.20
59703;DHT22;45570;48.782;8.332;2022-07-23T11:48:30;30.50;97.20
59703;DHT22;45570;48.782;8.332;2022-07-23T11:51:08;30.60;96.70
59703;DHT22;45570;48.782;8.332;2022-07-23T11:53:37;30.70;96.70
59703;DHT22;45570;48.782;8.332;2022-07-23T11:56:10;30.50;94.90
59703;DHT22;45570;48.782;8.332;2022-07-23T11:58:39;30.50;98.20
59703;DHT22;45570;48.782;8.332;2022-07-23T12:01:22;30.70;96.40
59703;DHT22;45570;48.782;8.332;2022-07-23T12:03:52;31.00;97.90
59703;DHT22;45570;48.782;8.332;2022-07-23T12:06:22;31.20;95.70
59703;DHT22;45570;48.782;8.332;2022-07-23T12:08:51;31.40;97.90
59703;DHT22;45570;48.782;8.332;2022-07-23T12:11:20;31.60;94.30
59703;DHT22;45570;48.782;8.332;2022-07-23T12:13:56;31.30;96.00
59703;DHT22;45570;48.782;8.332;2022-07-23T12:16:25;31.10;95.80
59703;DHT22;45570;48.782;8.332;2022-07-23T12:18:54;30.90;97.60
59703;DHT22;45570;48.782;8.332;2022-07-23T12:21:26;30.60;95.50
59703;DHT22;45570;48.782;8.332;2022-07-23T12:24:05;30.30;96.90
59703;DHT22;45570;48.782;8.332;2022-07-23T12:26:34;30.40;97.10
59703;DHT22;45570;48.782;8.332;2022-07-23T12:29:04;30.60;95.70
59703;DHT22;45570;48.782;8.332;2022-07-23T12:31:32;30.60;96.80
59703;DHT22;45570;48.782;8.332;2022-07-23T12:34:13;30.50;96.30
59703;DHT22;45570;48.782;8.332;2022-07-23T12:36:44;30.70;96.00
59703;DHT22;45570;48.782;8.332;2022-07-23T12:39:29;30.50;96.00
59703;DHT22;45570;48.782;8.332;2022-07-23T12:41:58;30.20;96.00
59703;DHT22;45570;48.782;8.332;2022-07-23T12:44:27;30.10;94.10
59703;DHT22;45570;48.782;8.332;2022-07-23T12:46:56;30.00;95.70
59703;DHT22;45570;48.782;8.332;2022-07-23T12:49:26;30.30;95.20
59703;DHT22;45570;48.782;8.332;2022-07-23T12:51:58;30.70;96.70
59703;DHT22;45570;48.782;8.332;2022-07-23T12:54:28;31.30;93.60
59703;DHT22;45570;48.782;8.332;2022-07-23T12:56:56;31.30;92.70
59703;DHT22;45570;48.782;8.332;2022-07-23T12:59:30;31.30;92.80
59703;DHT22;45570;48.782;8.332;2022-07-23T13:02:00;31.20;92.10
59703;DHT22;45570;48.782;8.332;2022-07-23T13:04:30;31.00;91.40
59703;DHT22;45570;48.782;8.332;2022-07-23T13:07:03;31.20;91.10
59703;DHT22;45570;48.782;8.332;2022-07-23T13:09:33;31.40;91.40
59703;DHT22;45570;48.782;8.332;2022-07-23T13:12:08;31.40;88.70
59703;DHT22;45570;48.782;8.332;2022-07-23T13:14:38;31.50;88.90
59703;DHT22;45570;48.782;8.332;2022-07-23T13:17:08;31.50;90.20
59703;DHT22;45570;48.782;8.332;2022-07-23T13:19:37;31.70;91.10
59703;DHT22;45570;48.782;8.332;2022-07-23T13:22:07;31.80;91.70
59703;DHT22;45570;48.782;8.332;2022-07-23T13:24:36;31.70;90.50
59703;DHT22;45570;48.782;8.332;2022-07-23T13:27:06;31.60;89.90
59703;DHT22;45570;48.782;8.332;2022-07-23T13:29:39;31.60;90.60
59703;DHT22;45570;48.782;8.332;2022-07-23T13:32:08;31.70;87.70
59703;DHT22;45570;48.782;8.332;2022-07-23T13:34:40;31.40;88.40
59703;DHT22;45570;48.782;8.332;2022-07-23T13:37:10;30.90;87.30
59703;DHT22;45570;48.782;8.332;2022-07-23T13:39:40;30.50;89.90
59703;DHT22;45570;48.782;8.332;2022-07-23T13:42:09;30.40;90.40
59703;DHT22;45570;48.782;8.332;2022-07-23T13:44:38;30.40;90.00
59703;DHT22;45570;48.782;8.332;2022-07-23T13:47:07;30.30;91.80
59703;DHT22;45570;48.782;8.332;2022-07-23T13:49:36;30.50;90.50
59703;DHT22;45570;48.782;8.332;2022-07-23T13:52:05;30.50;91.50
59703;DHT22;45570;48.782;8.332;2022-07-23T13:54:36;30.60;91.60
59703;DHT22;45570;48.782;8.332;2022-07-23T13:57:05;30.80;91.20
59703;DHT22;45570;48.782;8.332;2022-07-23T13:59:34;31.10;91.20
59703;DHT22;45570;48.782;8.332;2022-07-23T14:02:03;31.10;89.00
59703;DHT22;45570;48.782;8.332;2022-07-23T14:04:51;31.00;88.60
59703;DHT22;45570;48.782;8.332;2022-07-23T14:07:21;30.60;90.40
59703;DHT22;45570;48.782;8.332;2022-07-23T14:09:51;30.30;90.20
59703;DHT22;45570;48.782;8.332;2022-07-23T14:12:21;30.30;92.70
59703;DHT22;45570;48.782;8.332;2022-07-23T14:14:50;30.50;91.30
59703;DHT22;45570;48.782;8.332;2022-07-23T14:17:19;30.20;90.50
59703;DHT22;45570;48.782;8.332;2022-07-23T14:19:50;30.00;92.20
59703;DHT22;45570;48.782;8.332;2022-07-23T14:22:19;30.00;93.40
59703;DHT22;45570;48.782;8.332;2022-07-23T14:24:48;30.00;93.20
59703;DHT22;45570;48.782;8.332;2022-07-23T14:27:18;29.90;92.70
59703;DHT22;45570;48.782;8.332;2022-07-23T14:29:47;29.80;93.40
59703;DHT22;45570;48.782;8.332;2022-07-23T14:32:16;29.70;92.20
59703;DHT22;45570;48.782;8.332;2022-07-23T14:34:45;29.60;94.10
59703;DHT22;45570;48.782;8.332;2022-07-23T14:37:16;29.80;93.20
59703;DHT22;45570;48.782;8.332;2022-07-23T14:39:45;29.90;94.60
59703;DHT22;45570;48.782;8.332;2022-07-23T14:42:18;30.10;91.90
59703;DHT22;45570;48.782;8.332;2022-07-23T14:44:47;30.50;91.40
59703;DHT22;45570;48.782;8.332;2022-07-23T14:47:16;30.40;90.80
59703;DHT22;45570;48.782;8.332;2022-07-23T14:49:48;30.20;91.20
59703;DHT22;45570;48.782;8.332;2022-07-23T14:52:16;29.90;91.80
59703;DHT22;45570;48.782;8.332;2022-07-23T14:54:45;29.70;92.20
59703;DHT22;45570;48.782;8.332;2022-07-23T14:57:18;29.50;92.20
59703;DHT22;45570;48.782;8.332;2022-07-23T14:59:53;29.30;92.00
59703;DHT22;45570;48.782;8.332;2022-07-23T15:02:22;29.10;92.30
59703;DHT22;45570;48.782;8.332;2022-07-23T15:04:51;29.00;94.30
59703;DHT22;45570;48.782;8.332;2022-07-23T15:07:20;29.00;93.60
59703;DHT22;45570;48.782;8.332;2022-07-23T15:10:09;29.10;93.70
59703;DHT22;45570;48.782;8.332;2022-07-23T15:12:39;29.20;93.60
59703;DHT22;45570;48.782;8.332;2022-07-23T15:15:09;29.30;92.70
59703;DHT22;45570;48.782;8.332;2022-07-23T15:17:37;29.30;93.50
59703;DHT22;45570;48.782;8.332;2022-07-23T15:20:07;29.50;93.80
59703;DHT22;45570;48.782;8.332;2022-07-23T15:22:36;29.60;92.30
59703;DHT22;45570;48.782;8.332;2022-07-23T15:25:06;29.80;92.50
59703;DHT22;45570;48.782;8.332;2022-07-23T15:27:40;29.80;93.80
59703;DHT22;45570;48.782;8.332;2022-07-23T15:30:10;29.90;93.50
59703;DHT22;45570;48.782;8.332;2022-07-23T15:32:39;30.10;91.70
59703;DHT22;45570;48.782;8.332;2022-07-23T15:35:08;30.10;92.20
59703;DHT22;45570;48.782;8.332;2022-07-23T15:37:37;30.20;91.50
59703;DHT22;45570;48.782;8.332;2022-07-23T15:40:11;30.10;92.40
59703;DHT22;45570;48.782;8.332;2022-07-23T15:42:41;29.90;92.20
59703;DHT22;45570;48.782;8.332;2022-07-23T15:45:10;29.60;92.80
59703;DHT22;45570;48.782;8.332;2022-07-23T15:47:41;29.40;91.80
59703;DHT22;45570;48.782;8.332;2022-07-23T15:50:10;29.20;93.70
59703;DHT22;45570;48.782;8.332;2022-07-23T15:52:39;29.30;95.80
59703;DHT22;45570;48.782;8.332;2022-07-23T15:55:08;29.30;93.00
59703;DHT22;45570;48.782;8.332;2022-07-23T15:57:44;29.20;92.70
59703;DHT22;45570;48.782;8.332;2022-07-23T16:00:13;29.20;92.20
59703;DHT22;45570;48.782;8.332;2022-07-23T16:02:42;29.00;93.20
59703;DHT22;45570;48.782;8.332;2022-07-23T16:05:11;28.80;94.00
59703;DHT22;45570;48.782;8.332;2022-07-23T16:07:39;28.80;94.10
59703;DHT22;45570;48.782;8.332;2022-07-23T16:10:09;28.60;94.80
59703;DHT22;45570;48.782;8.332;2022-07-23T16:12:38;28.60;95.00
59703;DHT22;45570;48.782;8.332;2022-07-23T16:15:09;28.60;95.50
59703;DHT22;45570;48.782;8.332;2022-07-23T16:17:37;28.70;95.50
59703;DHT22;45570;48.782;8.332;2022-07-23T16:20:07;28.80;95.80
59703;DHT22;45570;48.782;8.332;2022-07-23T16:22:36;29.00;96.30
59703;DHT22;45570;48.782;8.332;2022-07-23T16:25:06;29.00;95.20
59703;DHT22;45570;48.782;8.332;2022-07-23T16:27:37;29.20;92.70
59703;DHT22;45570;48.782;8.332;2022-07-23T16:30:10;29.10;94.80
59703;DHT22;45570;48.782;8.332;2022-07-23T16:32:39;29.10;93.50
59703;DHT22;45570;48.782;8.332;2022-07-23T16:35:10;29.00;95.10
59703;DHT22;45570;48.782;8.332;2022-07-23T16:37:42;29.10;95.80
59703;DHT22;45570;48.782;8.332;2022-07-23T16:40:12;29.20;95.60
59703;DHT22;45570;48.782;8.332;2022-07-23T16:42:41;29.40;94.00
59703;DHT22;45570;48.782;8.332;2022-07-23T16:45:12;29.60;92.60
59703;DHT22;45570;48.782;8.332;2022-07-23T16:47:40;29.60;93.30
59703;DHT22;45570;48.782;8.332;2022-07-23T16:50:09;29.70;90.80
59703;DHT22;45570;48.782;8.332;2022-07-23T16:52:38;30.00;90.80
59703;DHT22;45570;48.782;8.332;2022-07-23T16:55:07;29.90;90.70
59703;DHT22;45570;48.782;8.332;2022-07-23T16:57:36;29.80;90.30
59703;DHT22;45570;48.782;8.332;2022-07-23T17:00:07;29.60;92.70
59703;DHT22;45570;48.782;8.332;2022-07-23T17:02:39;29.40;92.70
59703;DHT22;45570;48.782;8.332;2022-07-23T17:05:09;29.10;91.60
59703;DHT22;45570;48.782;8.332;2022-07-23T17:07:38;29.00;91.50
59703;DHT22;45570;48.782;8.332;2022-07-23T17:10:09;29.10;91.80
59703;DHT22;45570;48.782;8.332;2022-07-23T17:12:38;29.10;92.40
59703;DHT22;45570;48.782;8.332;2022-07-23T17:15:08;29.30;92.30
59703;DHT22;45570;48.782;8.332;2022-07-23T17:17:37;29.10;92.00
59703;DHT22;45570;48.782;8.332;2022-07-23T17:20:08;28.90;93.10
59703;DHT22;45570;48.782;8.332;2022-07-23T17:22:37;28.80;93.10
59703;DHT22;45570;48.782;8.332;2022-07-23T17:25:07;28.60;94.70
59703;DHT22;45570;48.782;8.332;2022-07-23T17:27:39;28.50;94.80
59703;DHT22;45570;48.782;8.332;2022-07-23T17:30:09;28.30;95.80
59703;DHT22;45570;48.782;8.332;2022-07-23T17:32:38;28.30;93.90
59703;DHT22;45570;48.782;8.332;2022-07-23T17:35:09;28.20;95.50
59703;DHT22;45570;48.782;8.332;2022-07-23T17:37:38;28.10;95.40
59703;DHT22;45570;48.782;8.332;2022-07-23T17:40:08;28.00;95.70
59703;DHT22;45570;48.782;8.332;2022-07-23T17:42:37;27.80;95.20
59703;DHT22;45570;48.782;8.332;2022-07-23T17:45:07;27.80;95.70
59703;DHT22;45570;48.782;8.332;2022-07-23T17:47:43;27.70;96.20
59703;DHT22;45570;48.782;8.332;2022-07-23T17:50:15;27.60;96.60
59703;DHT22;45570;48.782;8.332;2022-07-23T17:52:46;27.70;96.20
59703;DHT22;45570;48.782;8.332;2022-07-23T17:55:16;27.60;95.10
59703;DHT22;45570;48.782;8.332;2022-07-23T17:57:48;27.50;96.00
59703;DHT22;45570;48.782;8.332;2022-07-23T18:00:20;27.30;95.90
59703;DHT22;45570;48.782;8.332;2022-07-23T18:02:49;27.20;95.50
59703;DHT22;45570;48.782;8.332;2022-07-23T18:05:19;27.10;96.10
59703;DHT22;45570;48.782;8.332;2022-07-23T18:07:48;27.00;96.00
59703;DHT22;45570;48.782;8.332;2022-07-23T18:10:17;26.90;97.30
59703;DHT22;45570;48.782;8.332;2022-07-23T18:12:45;26.80;99.90
59703;DHT22;45570;48.782;8.332;2022-07-23T18:15:15;26.70;99.90
59703;DHT22;45570;48.782;8.332;2022-07-23T18:17:44;26.60;99.90
59703;DHT22;45570;48.782;8.332;2022-07-23T18:20:13;26.50;99.90
59703;DHT22;45570;48.782;8.332;2022-07-23T18:22:44;26.40;99.90
59703;DHT22;45570;48.782;8.332;2022-07-23T18:25:14;26.20;99.90
59703;DHT22;45570;48.782;8.332;2022-07-23T18:27:42;26.00;99.90
59703;DHT22;45570;48.782;8.332;2022-07-23T18:30:14;25.90;99.90
59703;DHT22;45570;48.782;8.332;2022-07-23T18:32:43;25.70;99.90
59703;DHT22;45570;48.782;8.332;2022-07-23T18:35:12;25.60;99.90
59703;DHT22;45570;48.782;8.332;2022-07-23T18:37:41;25.50;99.90
59703;DHT22;45570;48.782;8.332;2022-07-23T18:40:11;25.40;99.90
59703;DHT22;45570;48.782;8.332;2022-07-23T18:42:40;25.20;99.90
59703;DHT22;45570;48.782;8.332;2022-07-23T18:45:11;25.20;99.90
59703;DHT22;45570;48.782;8.332;2022-07-23T18:47:41;25.10;99.90
59703;DHT22;45570;48.782;8.332;2022-07-23T18:50:12;24.90;99.90
59703;DHT22;45570;48.782;8.332;2022-07-23T18:52:41;24.80;99.90
59703;DHT22;45570;48.782;8.332;2022-07-23T18:55:11;24.70;99.90
59703;DHT22;45570;48.782;8.332;2022-07-23T18:57:40;24.70;99.90
59703;DHT22;45570;48.782;8.332;2022-07-23T19:00:10;24.50;99.90
59703;DHT22;45570;48.782;8.332;2022-07-23T19:02:39;24.30;99.90
59703;DHT22;45570;48.782;8.332;2022-07-23T19:05:09;24.20;99.90
59703;DHT22;45570;48.782;8.332;2022-07-23T19:07:38;24.10;99.90
59703;DHT22;45570;48.782;8.332;2022-07-23T19:10:08;23.90;99.90
59703;DHT22;45570;48.782;8.332;2022-07-23T19:12:38;23.80;99.90
59703;DHT22;45570;48.782;8.332;2022-07-23T19:15:08;23.70;99.90
59703;DHT22;45570;48.782;8.332;2022-07-23T19:17:37;23.60;99.90
59703;DHT22;45570;48.782;8.332;2022-07-23T19:20:08;23.40;99.90
59703;DHT22;45570;48.782;8.332;2022-07-23T19:22:37;23.30;99.90
59703;DHT22;45570;48.782;8.332;2022-07-23T19:25:07;23.20;99.90
59703;DHT22;45570;48.782;8.332;2022-07-23T19:27:38;22.90;99.90
59703;DHT22;45570;48.782;8.332;2022-07-23T19:30:08;22.70;99.90
59703;DHT22;45570;48.782;8.332;2022-07-23T19:32:37;22.60;99.90
59703;DHT22;45570;48.782;8.332;2022-07-23T19:35:07;22.50;99.90
59703;DHT22;45570;48.782;8.332;2022-07-23T19:37:36;22.40;99.90
59703;DHT22;45570;48.782;8.332;2022-07-23T19:40:07;22.40;99.90
59703;DHT22;45570;48.782;8.332;2022-07-23T19:42:38;22.40;99.90
59703;DHT22;45570;48.782;8.332;2022-07-23T19:45:08;22.30;99.90
59703;DHT22;45570;48.782;8.332;2022-07-23T19:47:37;22.20;99.90